sensor_id;sensor_type;location;lat;lon;timestamp;temperature;humidity
51661;DHT22;37741;49.748;8.490;2022-11-15T00:01:36;9.20;90.70
51661;DHT22;37741;49.748;8.490;2022-11-15T00:04:04;9.20;90.50
51661;DHT22;37741;49.748;8.490;2022-11-15T00:06:30;9.20;90.30
51661;DHT22;37741;49.748;8.490;2022-11-15T00:08:59;9.20;90.60
51661;DHT22;37741;49.748;8.490;2022-11-15T00:11:25;9.20;90.50
51661;DHT22;37741;49.748;8.490;2022-11-15T00:13:54;9.20;90.30
51661;DHT22;37741;49.748;8.490;2022-11-15T00:16:20;9.20;90.50
51661;DHT22;37741;49.748;8.490;2022-11-15T00:18:45;9.10;90.30
51661;DHT22;37741;49.748;8.490;2022-11-15T00:21:13;9.20;90.20
51661;DHT22;37741;49.748;8.490;2022-11-15T00:23:39;9.20;90.30
51661;DHT22;37741;49.748;8.490;2022-11-15T00:26:05;9.20;90.80
51661;DHT22;37741;49.748;8.490;2022-11-15T00:28:31;9.10;90.80
51661;DHT22;37741;49.748;8.490;2022-11-15T00:31:01;9.20;90.40
51661;DHT22;37741;49.748;8.490;2022-11-15T00:33:27;9.10;90.30
51661;DHT22;37741;49.748;8.490;2022-11-15T00:35:53;9.20;90.30
51661;DHT22;37741;49.748;8.490;2022-11-15T00:38:18;9.10;90.70
51661;DHT22;37741;49.748;8.490;2022-11-15T00:40:44;9.20;90.50
51661;DHT22;37741;49.748;8.490;2022-11-15T00:43:09;9.10;91.00
51661;DHT22;37741;49.748;8.490;2022-11-15T00:45:35;9.20;90.50
51661;DHT22;37741;49.748;8.490;2022-11-15T00:48:00;9.10;90.40
51661;DHT22;37741;49.748;8.490;2022-11-15T00:50:26;9.10;90.20
51661;DHT22;37741;49.748;8.490;2022-11-15T00:52:52;9.20;90.20
51661;DHT22;37741;49.748;8.490;2022-11-15T00:55:18;9.20;90.20
51661;DHT22;37741;49.748;8.490;2022-11-15T00:57:44;9.20;90.20
51661;DHT22;37741;49.748;8.490;2022-11-15T01:00:10;9.20;90.20
51661;DHT22;37741;49.748;8.490;2022-11-15T01:02:36;9.20;90.20
51661;DHT22;37741;49.748;8.490;2022-11-15T01:05:02;9.20;90.20
51661;DHT22;37741;49.748;8.490;2022-11-15T01:07:27;9.10;90.20
51661;DHT22;37741;49.748;8.490;2022-11-15T01:09:53;9.10;90.40
51661;DHT22;37741;49.748;8.490;2022-11-15T01:12:19;9.20;91.00
51661;DHT22;37741;49.748;8.490;2022-11-15T01:14:44;9.10;90.80
51661;DHT22;37741;49.748;8.490;2022-11-15T01:17:10;9.10;90.50
51661;DHT22;37741;49.748;8.490;2022-11-15T01:19:35;9.10;90.40
51661;DHT22;37741;49.748;8.490;2022-11-15T01:22:01;9.10;90.80
51661;DHT22;37741;49.748;8.490;2022-11-15T01:24:27;9.10;90.30
51661;DHT22;37741;49.748;8.490;2022-11-15T01:26:52;9.10;90.20
51661;DHT22;37741;49.748;8.490;2022-11-15T01:29:18;9.10;90.20
51661;DHT22;37741;49.748;8.490;2022-11-15T01:31:43;9.10;90.20
51661;DHT22;37741;49.748;8.490;2022-11-15T01:34:09;9.10;90.20
51661;DHT22;37741;49.748;8.490;2022-11-15T01:36:35;9.20;90.20
51661;DHT22;37741;49.748;8.490;2022-11-15T01:39:00;9.20;90.30
51661;DHT22;37741;49.748;8.490;2022-11-15T01:41:31;9.20;90.50
51661;DHT22;37741;49.748;8.490;2022-11-15T01:47:13;9.20;90.60
51661;DHT22;37741;49.748;8.490;2022-11-15T01:49:51;9.20;90.90
51661;DHT22;37741;49.748;8.490;2022-11-15T01:52:21;9.20;90.70
51661;DHT22;37741;49.748;8.490;2022-11-15T01:54:53;9.20;90.60
51661;DHT22;37741;49.748;8.490;2022-11-15T01:57:20;9.10;90.60
51661;DHT22;37741;49.748;8.490;2022-11-15T01:59:47;9.20;90.50
51661;DHT22;37741;49.748;8.490;2022-11-15T02:02:12;9.20;90.70
51661;DHT22;37741;49.748;8.490;2022-11-15T02:04:44;9.20;90.60
51661;DHT22;37741;49.748;8.490;2022-11-15T02:07:12;9.20;90.50
51661;DHT22;37741;49.748;8.490;2022-11-15T02:09:39;9.20;90.70
51661;DHT22;37741;49.748;8.490;2022-11-15T02:12:06;9.20;90.60
51661;DHT22;37741;49.748;8.490;2022-11-15T02:14:33;9.20;90.50
51661;DHT22;37741;49.748;8.490;2022-11-15T02:25:01;9.20;90.60
51661;DHT22;37741;49.748;8.490;2022-11-15T02:30:43;9.20;90.70
51661;DHT22;37741;49.748;8.490;2022-11-15T02:33:40;9.20;90.70
51661;DHT22;37741;49.748;8.490;2022-11-15T02:36:17;9.20;90.70
51661;DHT22;37741;49.748;8.490;2022-11-15T02:38:58;9.20;90.70
51661;DHT22;37741;49.748;8.490;2022-11-15T02:44:04;9.20;90.50
51661;DHT22;37741;49.748;8.490;2022-11-15T02:46:45;9.20;90.50
51661;DHT22;37741;49.748;8.490;2022-11-15T02:49:46;9.20;90.40
51661;DHT22;37741;49.748;8.490;2022-11-15T02:52:16;9.20;90.50
51661;DHT22;37741;49.748;8.490;2022-11-15T02:54:42;9.20;90.30
51661;DHT22;37741;49.748;8.490;2022-11-15T02:57:15;9.20;90.40
51661;DHT22;37741;49.748;8.490;2022-11-15T03:00:01;9.30;90.30
51661;DHT22;37741;49.748;8.490;2022-11-15T03:05:30;9.30;90.40
51661;DHT22;37741;49.748;8.490;2022-11-15T03:13:45;9.20;90.60
51661;DHT22;37741;49.748;8.490;2022-11-15T03:19:20;9.20;90.90
51661;DHT22;37741;49.748;8.490;2022-11-15T03:21:50;9.20;90.40
51661;DHT22;37741;49.748;8.490;2022-11-15T03:24:19;9.20;90.30
51661;DHT22;37741;49.748;8.490;2022-11-15T03:26:48;9.20;90.50
51661;DHT22;37741;49.748;8.490;2022-11-15T03:29:19;9.30;90.40
51661;DHT22;37741;49.748;8.490;2022-11-15T03:31:52;9.30;90.60
51661;DHT22;37741;49.748;8.490;2022-11-15T03:34:22;9.30;90.50
51661;DHT22;37741;49.748;8.490;2022-11-15T03:36:51;9.30;90.50
51661;DHT22;37741;49.748;8.490;2022-11-15T03:39:17;9.30;90.40
51661;DHT22;37741;49.748;8.490;2022-11-15T03:44:40;9.30;90.30
51661;DHT22;37741;49.748;8.490;2022-11-15T03:47:11;9.30;90.40
51661;DHT22;37741;49.748;8.490;2022-11-15T03:49:42;9.30;90.30
51661;DHT22;37741;49.748;8.490;2022-11-15T03:52:10;9.30;90.50
51661;DHT22;37741;49.748;8.490;2022-11-15T03:54:36;9.30;90.40
51661;DHT22;37741;49.748;8.490;2022-11-15T03:57:02;9.30;90.40
51661;DHT22;37741;49.748;8.490;2022-11-15T03:59:28;9.30;90.50
51661;DHT22;37741;49.748;8.490;2022-11-15T04:01:53;9.30;90.70
51661;DHT22;37741;49.748;8.490;2022-11-15T04:04:19;9.30;90.60
51661;DHT22;37741;49.748;8.490;2022-11-15T04:06:45;9.30;90.70
51661;DHT22;37741;49.748;8.490;2022-11-15T04:09:10;9.30;90.80
51661;DHT22;37741;49.748;8.490;2022-11-15T04:11:36;9.30;90.60
51661;DHT22;37741;49.748;8.490;2022-11-15T04:14:01;9.30;90.40
51661;DHT22;37741;49.748;8.490;2022-11-15T04:16:27;9.30;90.60
51661;DHT22;37741;49.748;8.490;2022-11-15T04:18:53;9.30;90.50
51661;DHT22;37741;49.748;8.490;2022-11-15T04:21:37;9.30;90.50
51661;DHT22;37741;49.748;8.490;2022-11-15T04:24:22;9.30;90.40
51661;DHT22;37741;49.748;8.490;2022-11-15T04:26:47;9.30;90.40
51661;DHT22;37741;49.748;8.490;2022-11-15T04:29:13;9.30;90.50
51661;DHT22;37741;49.748;8.490;2022-11-15T04:31:57;9.30;90.50
51661;DHT22;37741;49.748;8.490;2022-11-15T04:34:23;9.40;90.50
51661;DHT22;37741;49.748;8.490;2022-11-15T04:36:48;9.30;90.40
51661;DHT22;37741;49.748;8.490;2022-11-15T04:39:32;9.40;90.40
51661;DHT22;37741;49.748;8.490;2022-11-15T04:41:58;9.40;90.40
51661;DHT22;37741;49.748;8.490;2022-11-15T04:44:24;9.30;90.50
51661;DHT22;37741;49.748;8.490;2022-11-15T04:46:49;9.40;90.40
51661;DHT22;37741;49.748;8.490;2022-11-15T04:49:15;9.40;90.40
51661;DHT22;37741;49.748;8.490;2022-11-15T04:51:40;9.40;90.40
51661;DHT22;37741;49.748;8.490;2022-11-15T04:54:06;9.30;90.40
51661;DHT22;37741;49.748;8.490;2022-11-15T04:56:31;9.40;90.40
51661;DHT22;37741;49.748;8.490;2022-11-15T04:58:57;9.40;90.30
51661;DHT22;37741;49.748;8.490;2022-11-15T05:01:23;9.40;90.30
51661;DHT22;37741;49.748;8.490;2022-11-15T05:03:48;9.30;90.40
51661;DHT22;37741;49.748;8.490;2022-11-15T05:06:32;9.40;90.40
51661;DHT22;37741;49.748;8.490;2022-11-15T05:08:58;9.40;90.50
51661;DHT22;37741;49.748;8.490;2022-11-15T05:11:24;9.40;90.30
51661;DHT22;37741;49.748;8.490;2022-11-15T05:13:50;9.40;90.40
51661;DHT22;37741;49.748;8.490;2022-11-15T05:16:16;9.40;90.30
51661;DHT22;37741;49.748;8.490;2022-11-15T05:18:42;9.40;90.40
51661;DHT22;37741;49.748;8.490;2022-11-15T05:21:14;9.40;90.70
51661;DHT22;37741;49.748;8.490;2022-11-15T05:23:41;9.40;90.40
51661;DHT22;37741;49.748;8.490;2022-11-15T05:26:07;9.40;90.60
51661;DHT22;37741;49.748;8.490;2022-11-15T05:28:33;9.40;90.70
51661;DHT22;37741;49.748;8.490;2022-11-15T05:31:03;9.40;90.70
51661;DHT22;37741;49.748;8.490;2022-11-15T05:33:29;9.40;90.70
51661;DHT22;37741;49.748;8.490;2022-11-15T05:36:00;9.40;90.50
51661;DHT22;37741;49.748;8.490;2022-11-15T05:38:28;9.40;90.40
51661;DHT22;37741;49.748;8.490;2022-11-15T05:40:54;9.40;90.30
51661;DHT22;37741;49.748;8.490;2022-11-15T05:43:20;9.40;90.30
51661;DHT22;37741;49.748;8.490;2022-11-15T05:45:46;9.40;90.30
51661;DHT22;37741;49.748;8.490;2022-11-15T05:48:12;9.40;90.30
51661;DHT22;37741;49.748;8.490;2022-11-15T05:50:41;9.40;90.30
51661;DHT22;37741;49.748;8.490;2022-11-15T05:53:08;9.40;90.20
51661;DHT22;37741;49.748;8.490;2022-11-15T05:55:34;9.40;90.30
51661;DHT22;37741;49.748;8.490;2022-11-15T05:58:00;9.40;90.30
51661;DHT22;37741;49.748;8.490;2022-11-15T06:00:26;9.40;90.30
51661;DHT22;37741;49.748;8.490;2022-11-15T06:02:52;9.40;90.30
51661;DHT22;37741;49.748;8.490;2022-11-15T06:05:17;9.40;90.40
51661;DHT22;37741;49.748;8.490;2022-11-15T06:07:43;9.40;90.30
51661;DHT22;37741;49.748;8.490;2022-11-15T06:10:09;9.40;90.40
51661;DHT22;37741;49.748;8.490;2022-11-15T06:12:35;9.40;90.40
51661;DHT22;37741;49.748;8.490;2022-11-15T06:15:00;9.40;90.30
51661;DHT22;37741;49.748;8.490;2022-11-15T06:17:26;9.40;90.70
51661;DHT22;37741;49.748;8.490;2022-11-15T06:19:51;9.40;90.30
51661;DHT22;37741;49.748;8.490;2022-11-15T06:22:17;9.40;90.40
51661;DHT22;37741;49.748;8.490;2022-11-15T06:24:43;9.40;90.30
51661;DHT22;37741;49.748;8.490;2022-11-15T06:27:10;9.40;90.40
51661;DHT22;37741;49.748;8.490;2022-11-15T06:29:36;9.50;90.50
51661;DHT22;37741;49.748;8.490;2022-11-15T06:32:01;9.40;90.40
51661;DHT22;37741;49.748;8.490;2022-11-15T06:34:27;9.40;90.30
51661;DHT22;37741;49.748;8.490;2022-11-15T06:36:53;9.40;90.30
51661;DHT22;37741;49.748;8.490;2022-11-15T06:39:18;9.40;90.30
51661;DHT22;37741;49.748;8.490;2022-11-15T06:41:44;9.40;90.30
51661;DHT22;37741;49.748;8.490;2022-11-15T06:44:10;9.40;90.30
51661;DHT22;37741;49.748;8.490;2022-11-15T06:46:35;9.40;90.20
51661;DHT22;37741;49.748;8.490;2022-11-15T06:49:01;9.40;90.20
51661;DHT22;37741;49.748;8.490;2022-11-15T06:51:26;9.40;90.20
51661;DHT22;37741;49.748;8.490;2022-11-15T06:53:52;9.40;90.20
51661;DHT22;37741;49.748;8.490;2022-11-15T06:56:17;9.40;90.20
51661;DHT22;37741;49.748;8.490;2022-11-15T06:58:44;9.40;90.20
51661;DHT22;37741;49.748;8.490;2022-11-15T07:01:11;9.40;90.20
51661;DHT22;37741;49.748;8.490;2022-11-15T07:03:39;9.40;90.20
51661;DHT22;37741;49.748;8.490;2022-11-15T07:06:05;9.50;90.20
51661;DHT22;37741;49.748;8.490;2022-11-15T07:08:31;9.40;90.20
51661;DHT22;37741;49.748;8.490;2022-11-15T07:11:02;9.40;90.20
51661;DHT22;37741;49.748;8.490;2022-11-15T07:13:29;9.40;90.10
51661;DHT22;37741;49.748;8.490;2022-11-15T07:15:55;9.40;90.10
51661;DHT22;37741;49.748;8.490;2022-11-15T07:18:20;9.40;90.10
51661;DHT22;37741;49.748;8.490;2022-11-15T07:20:46;9.40;90.10
51661;DHT22;37741;49.748;8.490;2022-11-15T07:23:12;9.40;90.10
51661;DHT22;37741;49.748;8.490;2022-11-15T07:25:38;9.40;90.20
51661;DHT22;37741;49.748;8.490;2022-11-15T07:28:03;9.40;90.40
51661;DHT22;37741;49.748;8.490;2022-11-15T07:30:29;9.50;90.50
51661;DHT22;37741;49.748;8.490;2022-11-15T07:33:00;9.40;91.00
51661;DHT22;37741;49.748;8.490;2022-11-15T07:35:27;9.50;91.40
51661;DHT22;37741;49.748;8.490;2022-11-15T07:38:01;9.50;91.00
51661;DHT22;37741;49.748;8.490;2022-11-15T07:40:28;9.50;90.70
51661;DHT22;37741;49.748;8.490;2022-11-15T07:43:01;9.50;91.10
51661;DHT22;37741;49.748;8.490;2022-11-15T07:45:27;9.50;90.80
51661;DHT22;37741;49.748;8.490;2022-11-15T07:47:53;9.50;90.90
51661;DHT22;37741;49.748;8.490;2022-11-15T07:50:19;9.50;90.90
51661;DHT22;37741;49.748;8.490;2022-11-15T07:52:45;9.50;91.00
51661;DHT22;37741;49.748;8.490;2022-11-15T07:55:11;9.50;91.10
51661;DHT22;37741;49.748;8.490;2022-11-15T07:57:37;9.50;90.90
51661;DHT22;37741;49.748;8.490;2022-11-15T08:00:06;9.50;91.10
51661;DHT22;37741;49.748;8.490;2022-11-15T08:02:32;9.50;91.10
51661;DHT22;37741;49.748;8.490;2022-11-15T08:04:57;9.50;90.60
51661;DHT22;37741;49.748;8.490;2022-11-15T08:07:24;9.60;90.60
51661;DHT22;37741;49.748;8.490;2022-11-15T08:09:50;9.60;90.50
51661;DHT22;37741;49.748;8.490;2022-11-15T08:12:15;9.50;90.90
51661;DHT22;37741;49.748;8.490;2022-11-15T08:14:41;9.50;90.70
51661;DHT22;37741;49.748;8.490;2022-11-15T08:17:06;9.60;90.60
51661;DHT22;37741;49.748;8.490;2022-11-15T08:19:32;9.60;91.00
51661;DHT22;37741;49.748;8.490;2022-11-15T08:21:57;9.60;91.00
51661;DHT22;37741;49.748;8.490;2022-11-15T08:24:23;9.60;91.10
51661;DHT22;37741;49.748;8.490;2022-11-15T08:26:49;9.60;90.90
51661;DHT22;37741;49.748;8.490;2022-11-15T08:29:14;9.60;91.00
51661;DHT22;37741;49.748;8.490;2022-11-15T08:31:40;9.60;91.30
51661;DHT22;37741;49.748;8.490;2022-11-15T08:34:06;9.60;91.20
51661;DHT22;37741;49.748;8.490;2022-11-15T08:36:32;9.60;91.30
51661;DHT22;37741;49.748;8.490;2022-11-15T08:38:57;9.60;91.50
51661;DHT22;37741;49.748;8.490;2022-11-15T08:41:30;9.60;91.10
51661;DHT22;37741;49.748;8.490;2022-11-15T08:43:56;9.60;90.90
51661;DHT22;37741;49.748;8.490;2022-11-15T08:46:21;9.60;91.10
51661;DHT22;37741;49.748;8.490;2022-11-15T08:48:47;9.60;91.00
51661;DHT22;37741;49.748;8.490;2022-11-15T08:51:13;9.70;91.10
51661;DHT22;37741;49.748;8.490;2022-11-15T08:53:38;9.70;90.70
51661;DHT22;37741;49.748;8.490;2022-11-15T08:56:11;9.70;90.50
51661;DHT22;37741;49.748;8.490;2022-11-15T08:58:37;9.70;90.60
51661;DHT22;37741;49.748;8.490;2022-11-15T09:01:03;9.70;90.80
51661;DHT22;37741;49.748;8.490;2022-11-15T09:03:29;9.70;90.80
51661;DHT22;37741;49.748;8.490;2022-11-15T09:06:00;9.70;90.60
51661;DHT22;37741;49.748;8.490;2022-11-15T09:08:29;9.70;90.60
51661;DHT22;37741;49.748;8.490;2022-11-15T09:10:55;9.70;90.70
51661;DHT22;37741;49.748;8.490;2022-11-15T09:13:21;9.70;90.90
51661;DHT22;37741;49.748;8.490;2022-11-15T09:15:47;9.70;90.80
51661;DHT22;37741;49.748;8.490;2022-11-15T09:18:12;9.70;90.70
51661;DHT22;37741;49.748;8.490;2022-11-15T09:20:38;9.80;90.80
51661;DHT22;37741;49.748;8.490;2022-11-15T09:23:04;9.80;91.30
51661;DHT22;37741;49.748;8.490;2022-11-15T09:25:31;9.80;90.90
51661;DHT22;37741;49.748;8.490;2022-11-15T09:27:57;9.80;91.10
51661;DHT22;37741;49.748;8.490;2022-11-15T09:30:24;9.80;92.00
51661;DHT22;37741;49.748;8.490;2022-11-15T09:32:50;9.80;91.40
51661;DHT22;37741;49.748;8.490;2022-11-15T09:35:15;9.80;91.20
51661;DHT22;37741;49.748;8.490;2022-11-15T09:37:41;9.90;91.60
51661;DHT22;37741;49.748;8.490;2022-11-15T09:40:11;9.90;91.90
51661;DHT22;37741;49.748;8.490;2022-11-15T09:42:59;9.90;92.10
51661;DHT22;37741;49.748;8.490;2022-11-15T09:45:55;9.90;92.10
51661;DHT22;37741;49.748;8.490;2022-11-15T09:51:32;10.00;92.30
51661;DHT22;37741;49.748;8.490;2022-11-15T09:56:32;10.00;91.90
51661;DHT22;37741;49.748;8.490;2022-11-15T10:02:18;10.00;91.80
51661;DHT22;37741;49.748;8.490;2022-11-15T10:04:45;10.00;91.90
51661;DHT22;37741;49.748;8.490;2022-11-15T10:12:59;10.10;91.80
51661;DHT22;37741;49.748;8.490;2022-11-15T10:15:25;10.10;91.70
51661;DHT22;37741;49.748;8.490;2022-11-15T10:20:55;10.10;91.70
51661;DHT22;37741;49.748;8.490;2022-11-15T10:23:23;10.10;92.00
51661;DHT22;37741;49.748;8.490;2022-11-15T10:25:54;10.20;91.50
51661;DHT22;37741;49.748;8.490;2022-11-15T10:28:30;10.20;91.50
51661;DHT22;37741;49.748;8.490;2022-11-15T10:30:57;10.20;91.70
51661;DHT22;37741;49.748;8.490;2022-11-15T10:49:24;10.30;91.60
51661;DHT22;37741;49.748;8.490;2022-11-15T10:54:33;10.30;91.50
51661;DHT22;37741;49.748;8.490;2022-11-15T10:57:00;10.30;91.90
51661;DHT22;37741;49.748;8.490;2022-11-15T10:59:32;10.30;91.70
51661;DHT22;37741;49.748;8.490;2022-11-15T11:01:59;10.40;91.80
51661;DHT22;37741;49.748;8.490;2022-11-15T11:04:25;10.40;91.90
51661;DHT22;37741;49.748;8.490;2022-11-15T11:06:56;10.40;91.90
51661;DHT22;37741;49.748;8.490;2022-11-15T11:09:37;10.40;91.60
51661;DHT22;37741;49.748;8.490;2022-11-15T11:12:04;10.50;91.40
51661;DHT22;37741;49.748;8.490;2022-11-15T11:14:32;10.50;92.00
51661;DHT22;37741;49.748;8.490;2022-11-15T11:22:34;10.50;91.40
51661;DHT22;37741;49.748;8.490;2022-11-15T11:25:33;10.50;91.20
51661;DHT22;37741;49.748;8.490;2022-11-15T11:28:05;10.60;91.30
51661;DHT22;37741;49.748;8.490;2022-11-15T11:36:40;10.60;91.90
51661;DHT22;37741;49.748;8.490;2022-11-15T11:47:55;10.70;91.50
51661;DHT22;37741;49.748;8.490;2022-11-15T11:50:26;10.80;91.30
51661;DHT22;37741;49.748;8.490;2022-11-15T11:53:09;10.80;91.40
51661;DHT22;37741;49.748;8.490;2022-11-15T11:55:46;10.80;91.20
51661;DHT22;37741;49.748;8.490;2022-11-15T11:59:05;10.80;91.40
51661;DHT22;37741;49.748;8.490;2022-11-15T12:01:29;10.80;91.30
51661;DHT22;37741;49.748;8.490;2022-11-15T12:03:57;10.90;91.40
51661;DHT22;37741;49.748;8.490;2022-11-15T12:06:35;10.90;91.60
51661;DHT22;37741;49.748;8.490;2022-11-15T12:12:18;10.90;91.10
51661;DHT22;37741;49.748;8.490;2022-11-15T12:14:58;11.00;91.10
51661;DHT22;37741;49.748;8.490;2022-11-15T12:17:28;11.00;91.00
51661;DHT22;37741;49.748;8.490;2022-11-15T12:20:03;11.00;91.00
51661;DHT22;37741;49.748;8.490;2022-11-15T12:23:27;11.00;90.90
51661;DHT22;37741;49.748;8.490;2022-11-15T12:25:52;11.00;90.90
51661;DHT22;37741;49.748;8.490;2022-11-15T12:31:24;11.10;91.10
51661;DHT22;37741;49.748;8.490;2022-11-15T12:33:57;11.10;91.10
51661;DHT22;37741;49.748;8.490;2022-11-15T12:38:55;11.20;91.10
51661;DHT22;37741;49.748;8.490;2022-11-15T12:41:26;11.20;91.00
51661;DHT22;37741;49.748;8.490;2022-11-15T12:43:52;11.20;90.80
51661;DHT22;37741;49.748;8.490;2022-11-15T12:48:59;11.20;91.20
51661;DHT22;37741;49.748;8.490;2022-11-15T13:02:30;11.40;90.90
51661;DHT22;37741;49.748;8.490;2022-11-15T13:17:45;11.50;90.70
51661;DHT22;37741;49.748;8.490;2022-11-15T13:20:18;11.50;90.70
51661;DHT22;37741;49.748;8.490;2022-11-15T13:22:58;11.50;90.70
51661;DHT22;37741;49.748;8.490;2022-11-15T13:30:40;11.50;90.60
51661;DHT22;37741;49.748;8.490;2022-11-15T13:33:16;11.60;90.60
51661;DHT22;37741;49.748;8.490;2022-11-15T13:35:46;11.60;90.50
51661;DHT22;37741;49.748;8.490;2022-11-15T13:38:39;11.60;90.50
51661;DHT22;37741;49.748;8.490;2022-11-15T13:41:18;11.60;90.60
51661;DHT22;37741;49.748;8.490;2022-11-15T13:43:47;11.70;90.60
51661;DHT22;37741;49.748;8.490;2022-11-15T13:46:21;11.70;90.80
51661;DHT22;37741;49.748;8.490;2022-11-15T13:48:53;11.70;90.50
51661;DHT22;37741;49.748;8.490;2022-11-15T13:56:32;11.70;90.30
51661;DHT22;37741;49.748;8.490;2022-11-15T13:59:00;11.70;90.50
51661;DHT22;37741;49.748;8.490;2022-11-15T14:01:28;11.70;90.40
51661;DHT22;37741;49.748;8.490;2022-11-15T14:04:00;11.70;90.50
51661;DHT22;37741;49.748;8.490;2022-11-15T14:06:28;11.80;90.50
51661;DHT22;37741;49.748;8.490;2022-11-15T14:11:25;11.80;90.70
51661;DHT22;37741;49.748;8.490;2022-11-15T14:16:45;11.80;90.30
51661;DHT22;37741;49.748;8.490;2022-11-15T14:19:33;11.80;90.60
51661;DHT22;37741;49.748;8.490;2022-11-15T14:24:35;11.80;90.50
51661;DHT22;37741;49.748;8.490;2022-11-15T14:27:25;11.90;90.40
51661;DHT22;37741;49.748;8.490;2022-11-15T14:29:51;11.80;90.50
51661;DHT22;37741;49.748;8.490;2022-11-15T14:32:25;11.90;90.70
51661;DHT22;37741;49.748;8.490;2022-11-15T14:34:58;11.90;90.70
51661;DHT22;37741;49.748;8.490;2022-11-15T14:37:27;11.90;90.70
51661;DHT22;37741;49.748;8.490;2022-11-15T14:39:53;11.90;90.60
51661;DHT22;37741;49.748;8.490;2022-11-15T14:42:20;11.90;90.40
51661;DHT22;37741;49.748;8.490;2022-11-15T14:44:47;11.90;90.40
51661;DHT22;37741;49.748;8.490;2022-11-15T14:47:13;11.90;90.30
51661;DHT22;37741;49.748;8.490;2022-11-15T14:49:38;11.90;90.30
51661;DHT22;37741;49.748;8.490;2022-11-15T14:52:30;11.90;90.50
51661;DHT22;37741;49.748;8.490;2022-11-15T14:55:00;11.90;90.50
51661;DHT22;37741;49.748;8.490;2022-11-15T14:57:27;11.90;90.30
51661;DHT22;37741;49.748;8.490;2022-11-15T14:59:53;11.90;90.20
51661;DHT22;37741;49.748;8.490;2022-11-15T15:02:23;12.00;90.40
51661;DHT22;37741;49.748;8.490;2022-11-15T15:04:50;12.00;90.40
51661;DHT22;37741;49.748;8.490;2022-11-15T15:07:16;12.00;90.10
51661;DHT22;37741;49.748;8.490;2022-11-15T15:09:42;12.00;90.10
51661;DHT22;37741;49.748;8.490;2022-11-15T15:12:20;11.90;90.00
51661;DHT22;37741;49.748;8.490;2022-11-15T15:14:47;11.90;90.00
51661;DHT22;37741;49.748;8.490;2022-11-15T15:17:13;11.90;90.20
51661;DHT22;37741;49.748;8.490;2022-11-15T15:19:38;11.90;90.30
51661;DHT22;37741;49.748;8.490;2022-11-15T15:22:04;11.90;90.00
51661;DHT22;37741;49.748;8.490;2022-11-15T15:24:30;11.90;89.80
51661;DHT22;37741;49.748;8.490;2022-11-15T15:26:56;11.90;89.80
51661;DHT22;37741;49.748;8.490;2022-11-15T15:29:21;11.90;89.60
51661;DHT22;37741;49.748;8.490;2022-11-15T15:31:47;11.90;90.00
51661;DHT22;37741;49.748;8.490;2022-11-15T15:34:12;11.90;89.60
51661;DHT22;37741;49.748;8.490;2022-11-15T15:36:38;11.90;89.90
51661;DHT22;37741;49.748;8.490;2022-11-15T15:39:03;11.90;89.80
51661;DHT22;37741;49.748;8.490;2022-11-15T15:41:29;11.90;89.80
51661;DHT22;37741;49.748;8.490;2022-11-15T15:43:54;11.90;90.00
51661;DHT22;37741;49.748;8.490;2022-11-15T15:46:20;11.90;90.00
51661;DHT22;37741;49.748;8.490;2022-11-15T15:48:46;11.90;90.00
51661;DHT22;37741;49.748;8.490;2022-11-15T15:51:12;11.90;89.80
51661;DHT22;37741;49.748;8.490;2022-11-15T15:53:38;11.90;90.00
51661;DHT22;37741;49.748;8.490;2022-11-15T15:56:04;11.90;89.90
51661;DHT22;37741;49.748;8.490;2022-11-15T15:58:33;11.90;89.90
51661;DHT22;37741;49.748;8.490;2022-11-15T16:00:59;11.90;89.70
51661;DHT22;37741;49.748;8.490;2022-11-15T16:03:24;11.90;89.90
51661;DHT22;37741;49.748;8.490;2022-11-15T16:05:50;11.90;89.30
51661;DHT22;37741;49.748;8.490;2022-11-15T16:08:21;11.90;90.00
51661;DHT22;37741;49.748;8.490;2022-11-15T16:10:47;11.90;89.80
51661;DHT22;37741;49.748;8.490;2022-11-15T16:13:13;11.90;89.40
51661;DHT22;37741;49.748;8.490;2022-11-15T16:15:39;11.90;90.00
51661;DHT22;37741;49.748;8.490;2022-11-15T16:18:06;11.90;90.00
51661;DHT22;37741;49.748;8.490;2022-11-15T16:23:04;11.90;90.00
51661;DHT22;37741;49.748;8.490;2022-11-15T16:25:50;11.90;90.20
51661;DHT22;37741;49.748;8.490;2022-11-15T16:28:24;11.90;90.20
51661;DHT22;37741;49.748;8.490;2022-11-15T16:31:03;11.90;90.10
51661;DHT22;37741;49.748;8.490;2022-11-15T16:33:29;11.80;90.00
51661;DHT22;37741;49.748;8.490;2022-11-15T16:35:54;11.90;89.90
51661;DHT22;37741;49.748;8.490;2022-11-15T16:38:20;11.80;89.90
51661;DHT22;37741;49.748;8.490;2022-11-15T16:40:46;11.80;90.00
51661;DHT22;37741;49.748;8.490;2022-11-15T16:43:12;11.80;90.00
51661;DHT22;37741;49.748;8.490;2022-11-15T16:45:37;11.80;90.00
51661;DHT22;37741;49.748;8.490;2022-11-15T16:48:03;11.80;89.80
51661;DHT22;37741;49.748;8.490;2022-11-15T16:50:32;11.80;89.50
51661;DHT22;37741;49.748;8.490;2022-11-15T16:53:00;11.80;89.80
51661;DHT22;37741;49.748;8.490;2022-11-15T16:55:27;11.80;89.80
51661;DHT22;37741;49.748;8.490;2022-11-15T16:57:54;11.80;90.00
51661;DHT22;37741;49.748;8.490;2022-11-15T17:00:20;11.80;90.00
51661;DHT22;37741;49.748;8.490;2022-11-15T17:02:48;11.80;90.00
51661;DHT22;37741;49.748;8.490;2022-11-15T17:05:16;11.80;89.90
51661;DHT22;37741;49.748;8.490;2022-11-15T17:07:42;11.80;89.70
51661;DHT22;37741;49.748;8.490;2022-11-15T17:10:10;11.80;89.60
51661;DHT22;37741;49.748;8.490;2022-11-15T17:12:37;11.80;89.80
51661;DHT22;37741;49.748;8.490;2022-11-15T17:15:03;11.70;89.30
51661;DHT22;37741;49.748;8.490;2022-11-15T17:17:30;11.70;89.50
51661;DHT22;37741;49.748;8.490;2022-11-15T17:19:56;11.70;90.10
51661;DHT22;37741;49.748;8.490;2022-11-15T17:22:22;11.70;89.80
51661;DHT22;37741;49.748;8.490;2022-11-15T17:24:48;11.70;90.00
51661;DHT22;37741;49.748;8.490;2022-11-15T17:27:14;11.70;90.00
51661;DHT22;37741;49.748;8.490;2022-11-15T17:29:41;11.70;90.00
51661;DHT22;37741;49.748;8.490;2022-11-15T17:32:07;11.70;89.90
51661;DHT22;37741;49.748;8.490;2022-11-15T17:34:34;11.70;89.90
51661;DHT22;37741;49.748;8.490;2022-11-15T17:36:59;11.70;89.80
51661;DHT22;37741;49.748;8.490;2022-11-15T17:39:25;11.70;89.70
51661;DHT22;37741;49.748;8.490;2022-11-15T17:41:51;11.70;89.50
51661;DHT22;37741;49.748;8.490;2022-11-15T17:44:16;11.70;90.00
51661;DHT22;37741;49.748;8.490;2022-11-15T17:46:43;11.70;90.00
51661;DHT22;37741;49.748;8.490;2022-11-15T17:49:09;11.70;89.50
51661;DHT22;37741;49.748;8.490;2022-11-15T17:51:34;11.70;90.20
51661;DHT22;37741;49.748;8.490;2022-11-15T17:54:00;11.60;89.90
51661;DHT22;37741;49.748;8.490;2022-11-15T17:56:27;11.60;90.00
51661;DHT22;37741;49.748;8.490;2022-11-15T17:58:57;11.70;89.80
51661;DHT22;37741;49.748;8.490;2022-11-15T18:01:31;11.70;89.50
51661;DHT22;37741;49.748;8.490;2022-11-15T18:03:58;11.60;89.30
51661;DHT22;37741;49.748;8.490;2022-11-15T18:06:25;11.60;89.30
51661;DHT22;37741;49.748;8.490;2022-11-15T18:08:53;11.60;89.40
51661;DHT22;37741;49.748;8.490;2022-11-15T18:11:26;11.60;90.00
51661;DHT22;37741;49.748;8.490;2022-11-15T18:13:56;11.60;90.40